sensor_id;sensor_type;location;lat;lon;timestamp;P1;durP1;ratioP1;P2;durP2;ratioP2
28862;SDS011;15994;51.796;13.006;2023-09-07T00:01:12;6.03;;;4.88;;
28862;SDS011;15994;51.796;13.006;2023-09-07T00:03:39;5.82;;;4.75;;
28862;SDS011;15994;51.796;13.006;2023-09-07T00:06:06;6.35;;;5.40;;
28862;SDS011;15994;51.796;13.006;2023-09-07T00:08:33;6.80;;;5.10;;
28862;SDS011;15994;51.796;13.006;2023-09-07T00:11:04;7.75;;;5.43;;
28862;SDS011;15994;51.796;13.006;2023-09-07T00:13:31;7.22;;;5.38;;
28862;SDS011;15994;51.796;13.006;2023-09-07T00:15:59;8.70;;;5.82;;
28862;SDS011;15994;51.796;13.006;2023-09-07T00:18:33;7.63;;;5.22;;
28862;SDS011;15994;51.796;13.006;2023-09-07T00:21:00;7.20;;;5.60;;
28862;SDS011;15994;51.796;13.006;2023-09-07T00:23:28;7.00;;;5.45;;
28862;SDS011;15994;51.796;13.006;2023-09-07T00:25:55;8.85;;;5.43;;
28862;SDS011;15994;51.796;13.006;2023-09-07T00:28:22;8.57;;;6.03;;
28862;SDS011;15994;51.796;13.006;2023-09-07T00:30:49;9.75;;;5.78;;
28862;SDS011;15994;51.796;13.006;2023-09-07T00:33:16;7.47;;;5.65;;
28862;SDS011;15994;51.796;13.006;2023-09-07T00:35:44;8.95;;;5.38;;
28862;SDS011;15994;51.796;13.006;2023-09-07T00:38:11;7.30;;;5.78;;
28862;SDS011;15994;51.796;13.006;2023-09-07T00:40:38;6.68;;;5.53;;
28862;SDS011;15994;51.796;13.006;2023-09-07T00:43:05;8.65;;;5.68;;
28862;SDS011;15994;51.796;13.006;2023-09-07T00:45:32;7.15;;;5.25;;
28862;SDS011;15994;51.796;13.006;2023-09-07T00:47:59;8.55;;;5.80;;
28862;SDS011;15994;51.796;13.006;2023-09-07T00:50:26;7.55;;;5.38;;
28862;SDS011;15994;51.796;13.006;2023-09-07T00:52:53;8.13;;;5.50;;
28862;SDS011;15994;51.796;13.006;2023-09-07T00:55:20;8.55;;;5.97;;
28862;SDS011;15994;51.796;13.006;2023-09-07T00:57:48;8.00;;;6.05;;
28862;SDS011;15994;51.796;13.006;2023-09-07T01:00:15;7.75;;;5.50;;
28862;SDS011;15994;51.796;13.006;2023-09-07T01:02:42;7.45;;;6.05;;
28862;SDS011;15994;51.796;13.006;2023-09-07T01:05:10;9.02;;;5.57;;
28862;SDS011;15994;51.796;13.006;2023-09-07T01:07:39;7.75;;;5.65;;
28862;SDS011;15994;51.796;13.006;2023-09-07T01:10:07;6.82;;;5.55;;
28862;SDS011;15994;51.796;13.006;2023-09-07T01:12:34;7.63;;;5.40;;
28862;SDS011;15994;51.796;13.006;2023-09-07T01:15:01;8.80;;;6.10;;
28862;SDS011;15994;51.796;13.006;2023-09-07T01:17:30;8.57;;;5.63;;
28862;SDS011;15994;51.796;13.006;2023-09-07T01:19:57;7.80;;;6.20;;
28862;SDS011;15994;51.796;13.006;2023-09-07T01:22:30;9.70;;;5.90;;
28862;SDS011;15994;51.796;13.006;2023-09-07T01:24:57;7.53;;;5.93;;
28862;SDS011;15994;51.796;13.006;2023-09-07T01:27:25;8.68;;;6.18;;
28862;SDS011;15994;51.796;13.006;2023-09-07T01:29:52;8.77;;;6.00;;
28862;SDS011;15994;51.796;13.006;2023-09-07T01:32:20;10.18;;;5.90;;
28862;SDS011;15994;51.796;13.006;2023-09-07T01:34:49;7.85;;;6.55;;
28862;SDS011;15994;51.796;13.006;2023-09-07T01:37:17;8.23;;;6.15;;
28862;SDS011;15994;51.796;13.006;2023-09-07T01:39:44;8.27;;;6.18;;
28862;SDS011;15994;51.796;13.006;2023-09-07T01:42:11;8.00;;;5.82;;
28862;SDS011;15994;51.796;13.006;2023-09-07T01:52:22;7.18;;;5.60;;
28862;SDS011;15994;51.796;13.006;2023-09-07T01:54:51;9.13;;;5.93;;
28862;SDS011;15994;51.796;13.006;2023-09-07T01:57:18;7.50;;;6.28;;
28862;SDS011;15994;51.796;13.006;2023-09-07T01:59:54;7.45;;;5.50;;
28862;SDS011;15994;51.796;13.006;2023-09-07T02:02:29;8.85;;;5.85;;
28862;SDS011;15994;51.796;13.006;2023-09-07T02:05:05;6.97;;;5.82;;
28862;SDS011;15994;51.796;13.006;2023-09-07T02:07:32;9.85;;;5.60;;
28862;SDS011;15994;51.796;13.006;2023-09-07T02:10:03;8.68;;;6.00;;
28862;SDS011;15994;51.796;13.006;2023-09-07T02:12:32;8.48;;;5.90;;
28862;SDS011;15994;51.796;13.006;2023-09-07T02:15:05;6.40;;;5.50;;
28862;SDS011;15994;51.796;13.006;2023-09-07T02:17:35;6.88;;;5.90;;
28862;SDS011;15994;51.796;13.006;2023-09-07T02:20:11;6.95;;;5.65;;
28862;SDS011;15994;51.796;13.006;2023-09-07T02:22:42;8.27;;;6.55;;
28862;SDS011;15994;51.796;13.006;2023-09-07T02:28:01;9.15;;;6.20;;
28862;SDS011;15994;51.796;13.006;2023-09-07T02:30:31;9.15;;;5.90;;
28862;SDS011;15994;51.796;13.006;2023-09-07T02:33:01;7.47;;;6.03;;
28862;SDS011;15994;51.796;13.006;2023-09-07T02:35:29;8.02;;;6.57;;
28862;SDS011;15994;51.796;13.006;2023-09-07T02:38:05;7.45;;;5.78;;
28862;SDS011;15994;51.796;13.006;2023-09-07T02:40:50;7.40;;;6.15;;
28862;SDS011;15994;51.796;13.006;2023-09-07T02:43:20;8.40;;;6.72;;
28862;SDS011;15994;51.796;13.006;2023-09-07T02:45:50;8.68;;;6.68;;
28862;SDS011;15994;51.796;13.006;2023-09-07T02:48:20;10.57;;;6.50;;
28862;SDS011;15994;51.796;13.006;2023-09-07T02:50:50;11.15;;;6.40;;
28862;SDS011;15994;51.796;13.006;2023-09-07T02:53:30;9.30;;;6.32;;
28862;SDS011;15994;51.796;13.006;2023-09-07T02:56:04;10.85;;;6.32;;
28862;SDS011;15994;51.796;13.006;2023-09-07T02:58:41;7.88;;;5.95;;
28862;SDS011;15994;51.796;13.006;2023-09-07T03:01:13;9.27;;;6.45;;
28862;SDS011;15994;51.796;13.006;2023-09-07T03:03:44;9.13;;;6.50;;
28862;SDS011;15994;51.796;13.006;2023-09-07T03:06:18;8.13;;;6.53;;
28862;SDS011;15994;51.796;13.006;2023-09-07T03:08:53;8.48;;;6.80;;
28862;SDS011;15994;51.796;13.006;2023-09-07T03:11:21;8.63;;;6.63;;
28862;SDS011;15994;51.796;13.006;2023-09-07T03:13:50;11.05;;;7.15;;
28862;SDS011;15994;51.796;13.006;2023-09-07T03:16:19;10.23;;;7.63;;
28862;SDS011;15994;51.796;13.006;2023-09-07T03:18:55;11.63;;;7.40;;
28862;SDS011;15994;51.796;13.006;2023-09-07T03:21:25;11.40;;;7.97;;
28862;SDS011;15994;51.796;13.006;2023-09-07T03:23:54;9.25;;;7.43;;
28862;SDS011;15994;51.796;13.006;2023-09-07T03:26:24;10.18;;;7.75;;
28862;SDS011;15994;51.796;13.006;2023-09-07T03:28:58;10.45;;;7.55;;
28862;SDS011;15994;51.796;13.006;2023-09-07T03:31:28;8.98;;;7.78;;
28862;SDS011;15994;51.796;13.006;2023-09-07T03:33:56;11.98;;;7.65;;
28862;SDS011;15994;51.796;13.006;2023-09-07T03:36:25;9.35;;;7.45;;
28862;SDS011;15994;51.796;13.006;2023-09-07T03:39:03;11.23;;;8.18;;
28862;SDS011;15994;51.796;13.006;2023-09-07T03:41:32;11.13;;;7.93;;
28862;SDS011;15994;51.796;13.006;2023-09-07T03:44:03;10.60;;;8.40;;
28862;SDS011;15994;51.796;13.006;2023-09-07T03:46:31;11.38;;;8.38;;
28862;SDS011;15994;51.796;13.006;2023-09-07T03:49:00;12.05;;;8.68;;
28862;SDS011;15994;51.796;13.006;2023-09-07T03:51:35;10.90;;;8.68;;
28862;SDS011;15994;51.796;13.006;2023-09-07T03:54:04;9.57;;;8.13;;
28862;SDS011;15994;51.796;13.006;2023-09-07T03:56:44;10.07;;;8.90;;
28862;SDS011;15994;51.796;13.006;2023-09-07T03:59:11;14.50;;;8.88;;
28862;SDS011;15994;51.796;13.006;2023-09-07T04:01:38;12.48;;;8.77;;
28862;SDS011;15994;51.796;13.006;2023-09-07T04:04:20;11.45;;;9.02;;
28862;SDS011;15994;51.796;13.006;2023-09-07T04:06:50;11.73;;;9.75;;
28862;SDS011;15994;51.796;13.006;2023-09-07T04:15:33;11.60;;;8.13;;
28862;SDS011;15994;51.796;13.006;2023-09-07T04:18:06;12.77;;;8.98;;
28862;SDS011;15994;51.796;13.006;2023-09-07T04:20:33;10.82;;;8.43;;
28862;SDS011;15994;51.796;13.006;2023-09-07T04:23:02;9.02;;;7.68;;
28862;SDS011;15994;51.796;13.006;2023-09-07T04:25:31;14.27;;;9.68;;
28862;SDS011;15994;51.796;13.006;2023-09-07T04:27:58;11.20;;;9.23;;
28862;SDS011;15994;51.796;13.006;2023-09-07T04:30:25;14.85;;;9.05;;
28862;SDS011;15994;51.796;13.006;2023-09-07T04:32:52;11.20;;;9.43;;
28862;SDS011;15994;51.796;13.006;2023-09-07T04:35:19;12.43;;;8.65;;
28862;SDS011;15994;51.796;13.006;2023-09-07T04:37:46;11.27;;;8.43;;
28862;SDS011;15994;51.796;13.006;2023-09-07T04:40:13;10.68;;;9.23;;
28862;SDS011;15994;51.796;13.006;2023-09-07T04:42:41;12.63;;;9.95;;
28862;SDS011;15994;51.796;13.006;2023-09-07T04:45:08;12.82;;;9.13;;
28862;SDS011;15994;51.796;13.006;2023-09-07T04:47:35;10.10;;;8.68;;
28862;SDS011;15994;51.796;13.006;2023-09-07T04:50:02;13.70;;;8.80;;
28862;SDS011;15994;51.796;13.006;2023-09-07T04:52:29;11.75;;;8.85;;
28862;SDS011;15994;51.796;13.006;2023-09-07T04:54:56;11.80;;;9.80;;
28862;SDS011;15994;51.796;13.006;2023-09-07T04:57:24;12.27;;;9.75;;
28862;SDS011;15994;51.796;13.006;2023-09-07T04:59:52;11.75;;;10.30;;
28862;SDS011;15994;51.796;13.006;2023-09-07T05:02:20;12.55;;;9.48;;
28862;SDS011;15994;51.796;13.006;2023-09-07T05:04:47;10.93;;;8.85;;
28862;SDS011;15994;51.796;13.006;2023-09-07T05:07:17;9.93;;;8.68;;
28862;SDS011;15994;51.796;13.006;2023-09-07T05:09:44;12.50;;;9.52;;
28862;SDS011;15994;51.796;13.006;2023-09-07T05:12:12;14.90;;;9.90;;
28862;SDS011;15994;51.796;13.006;2023-09-07T05:14:39;13.13;;;8.80;;
28862;SDS011;15994;51.796;13.006;2023-09-07T05:17:06;16.10;;;9.73;;
28862;SDS011;15994;51.796;13.006;2023-09-07T05:19:33;13.40;;;9.60;;
28862;SDS011;15994;51.796;13.006;2023-09-07T05:22:00;12.55;;;9.98;;
28862;SDS011;15994;51.796;13.006;2023-09-07T05:24:28;11.77;;;8.40;;
28862;SDS011;15994;51.796;13.006;2023-09-07T05:26:55;11.35;;;7.97;;
28862;SDS011;15994;51.796;13.006;2023-09-07T05:29:22;9.90;;;8.90;;
28862;SDS011;15994;51.796;13.006;2023-09-07T05:31:49;13.38;;;9.98;;
28862;SDS011;15994;51.796;13.006;2023-09-07T05:34:16;9.00;;;7.78;;
28862;SDS011;15994;51.796;13.006;2023-09-07T05:36:44;8.80;;;7.13;;
28862;SDS011;15994;51.796;13.006;2023-09-07T05:39:11;12.60;;;8.43;;
28862;SDS011;15994;51.796;13.006;2023-09-07T05:41:53;8.93;;;7.43;;
28862;SDS011;15994;51.796;13.006;2023-09-07T05:44:20;11.98;;;8.10;;
28862;SDS011;15994;51.796;13.006;2023-09-07T05:46:55;10.95;;;8.85;;
28862;SDS011;15994;51.796;13.006;2023-09-07T05:49:23;11.50;;;8.65;;
28862;SDS011;15994;51.796;13.006;2023-09-07T05:51:53;8.98;;;7.55;;
28862;SDS011;15994;51.796;13.006;2023-09-07T05:54:29;10.07;;;8.60;;
28862;SDS011;15994;51.796;13.006;2023-09-07T05:59:26;10.40;;;8.77;;
28862;SDS011;15994;51.796;13.006;2023-09-07T06:01:55;13.35;;;9.48;;
28862;SDS011;15994;51.796;13.006;2023-09-07T06:04:25;13.75;;;9.18;;
28862;SDS011;15994;51.796;13.006;2023-09-07T06:09:31;14.52;;;9.68;;
28862;SDS011;15994;51.796;13.006;2023-09-07T06:12:04;11.57;;;6.65;;
28862;SDS011;15994;51.796;13.006;2023-09-07T06:14:38;13.02;;;8.88;;
28862;SDS011;15994;51.796;13.006;2023-09-07T06:17:07;9.38;;;6.93;;
28862;SDS011;15994;51.796;13.006;2023-09-07T06:19:35;11.38;;;8.30;;
28862;SDS011;15994;51.796;13.006;2023-09-07T06:22:05;12.52;;;8.65;;
28862;SDS011;15994;51.796;13.006;2023-09-07T06:24:42;12.02;;;7.78;;
28862;SDS011;15994;51.796;13.006;2023-09-07T06:27:09;10.40;;;8.02;;
28862;SDS011;15994;51.796;13.006;2023-09-07T06:29:39;9.35;;;6.78;;
28862;SDS011;15994;51.796;13.006;2023-09-07T06:32:13;11.77;;;9.50;;
28862;SDS011;15994;51.796;13.006;2023-09-07T06:34:40;9.23;;;7.10;;
28862;SDS011;15994;51.796;13.006;2023-09-07T06:37:18;10.25;;;8.45;;
28862;SDS011;15994;51.796;13.006;2023-09-07T06:39:52;11.27;;;7.75;;
28862;SDS011;15994;51.796;13.006;2023-09-07T06:42:25;9.38;;;7.40;;
28862;SDS011;15994;51.796;13.006;2023-09-07T06:44:52;10.75;;;7.10;;
28862;SDS011;15994;51.796;13.006;2023-09-07T06:47:20;8.30;;;6.38;;
28862;SDS011;15994;51.796;13.006;2023-09-07T06:49:51;9.73;;;6.30;;
28862;SDS011;15994;51.796;13.006;2023-09-07T06:52:23;11.52;;;8.20;;
28862;SDS011;15994;51.796;13.006;2023-09-07T06:54:53;9.10;;;6.80;;
28862;SDS011;15994;51.796;13.006;2023-09-07T06:57:30;8.43;;;6.45;;
28862;SDS011;15994;51.796;13.006;2023-09-07T07:00:00;11.38;;;7.93;;
28862;SDS011;15994;51.796;13.006;2023-09-07T07:02:46;9.52;;;6.20;;
28862;SDS011;15994;51.796;13.006;2023-09-07T07:05:24;10.18;;;7.65;;
28862;SDS011;15994;51.796;13.006;2023-09-07T07:07:54;6.57;;;5.25;;
28862;SDS011;15994;51.796;13.006;2023-09-07T07:10:21;9.90;;;6.75;;
28862;SDS011;15994;51.796;13.006;2023-09-07T07:12:51;7.28;;;5.70;;
28862;SDS011;15994;51.796;13.006;2023-09-07T07:15:40;10.73;;;7.32;;
28862;SDS011;15994;51.796;13.006;2023-09-07T07:18:16;10.27;;;5.90;;
28862;SDS011;15994;51.796;13.006;2023-09-07T07:20:44;8.10;;;6.72;;
28862;SDS011;15994;51.796;13.006;2023-09-07T07:23:14;10.27;;;8.13;;
28862;SDS011;15994;51.796;13.006;2023-09-07T07:25:44;13.90;;;7.50;;
28862;SDS011;15994;51.796;13.006;2023-09-07T07:28:18;7.30;;;5.80;;
28862;SDS011;15994;51.796;13.006;2023-09-07T07:30:51;9.10;;;7.00;;
28862;SDS011;15994;51.796;13.006;2023-09-07T07:33:33;8.50;;;6.18;;
28862;SDS011;15994;51.796;13.006;2023-09-07T07:36:19;7.53;;;6.05;;
28862;SDS011;15994;51.796;13.006;2023-09-07T07:38:46;7.85;;;5.82;;
28862;SDS011;15994;51.796;13.006;2023-09-07T07:41:29;10.18;;;6.97;;
28862;SDS011;15994;51.796;13.006;2023-09-07T07:43:56;7.05;;;5.38;;
28862;SDS011;15994;51.796;13.006;2023-09-07T07:46:23;7.90;;;6.47;;
28862;SDS011;15994;51.796;13.006;2023-09-07T07:48:53;8.55;;;5.65;;
28862;SDS011;15994;51.796;13.006;2023-09-07T07:51:30;7.05;;;5.40;;
28862;SDS011;15994;51.796;13.006;2023-09-07T07:54:12;7.13;;;4.95;;
28862;SDS011;15994;51.796;13.006;2023-09-07T07:56:50;7.15;;;5.70;;
28862;SDS011;15994;51.796;13.006;2023-09-07T07:59:32;8.85;;;6.15;;
28862;SDS011;15994;51.796;13.006;2023-09-07T08:02:31;8.43;;;5.60;;
28862;SDS011;15994;51.796;13.006;2023-09-07T08:05:23;6.88;;;5.10;;
28862;SDS011;15994;51.796;13.006;2023-09-07T08:07:52;8.05;;;6.05;;
28862;SDS011;15994;51.796;13.006;2023-09-07T08:10:19;7.68;;;6.13;;
28862;SDS011;15994;51.796;13.006;2023-09-07T08:12:46;6.82;;;5.65;;
28862;SDS011;15994;51.796;13.006;2023-09-07T08:15:13;6.00;;;4.90;;
28862;SDS011;15994;51.796;13.006;2023-09-07T08:17:41;6.32;;;4.80;;
28862;SDS011;15994;51.796;13.006;2023-09-07T08:20:08;6.72;;;4.95;;
28862;SDS011;15994;51.796;13.006;2023-09-07T08:22:36;6.60;;;4.90;;
28862;SDS011;15994;51.796;13.006;2023-09-07T08:25:06;5.53;;;4.40;;
28862;SDS011;15994;51.796;13.006;2023-09-07T08:27:33;5.63;;;4.90;;
28862;SDS011;15994;51.796;13.006;2023-09-07T08:30:00;5.63;;;4.93;;
28862;SDS011;15994;51.796;13.006;2023-09-07T08:32:28;6.80;;;4.38;;
28862;SDS011;15994;51.796;13.006;2023-09-07T08:34:56;6.40;;;4.82;;
28862;SDS011;15994;51.796;13.006;2023-09-07T08:37:26;6.68;;;4.38;;
28862;SDS011;15994;51.796;13.006;2023-09-07T08:39:56;6.88;;;4.93;;
28862;SDS011;15994;51.796;13.006;2023-09-07T08:42:24;5.78;;;4.45;;
28862;SDS011;15994;51.796;13.006;2023-09-07T08:44:52;6.22;;;4.80;;
28862;SDS011;15994;51.796;13.006;2023-09-07T08:47:23;7.03;;;5.35;;
28862;SDS011;15994;51.796;13.006;2023-09-07T08:49:50;7.28;;;4.47;;
28862;SDS011;15994;51.796;13.006;2023-09-07T08:52:17;6.95;;;5.07;;
28862;SDS011;15994;51.796;13.006;2023-09-07T08:54:45;6.25;;;4.80;;
28862;SDS011;15994;51.796;13.006;2023-09-07T08:57:13;6.78;;;4.93;;
28862;SDS011;15994;51.796;13.006;2023-09-07T08:59:40;6.38;;;5.43;;
28862;SDS011;15994;51.796;13.006;2023-09-07T09:02:09;8.38;;;5.57;;
28862;SDS011;15994;51.796;13.006;2023-09-07T09:04:37;7.25;;;4.78;;
28862;SDS011;15994;51.796;13.006;2023-09-07T09:07:05;6.97;;;5.32;;
28862;SDS011;15994;51.796;13.006;2023-09-07T09:09:32;5.32;;;4.40;;
28862;SDS011;15994;51.796;13.006;2023-09-07T09:12:08;8.27;;;5.40;;
28862;SDS011;15994;51.796;13.006;2023-09-07T09:14:36;6.85;;;4.57;;
28862;SDS011;15994;51.796;13.006;2023-09-07T09:17:03;8.38;;;5.07;;
28862;SDS011;15994;51.796;13.006;2023-09-07T09:19:33;6.18;;;4.63;;
28862;SDS011;15994;51.796;13.006;2023-09-07T09:22:01;7.85;;;4.43;;
28862;SDS011;15994;51.796;13.006;2023-09-07T09:24:31;9.20;;;5.18;;
28862;SDS011;15994;51.796;13.006;2023-09-07T09:26:58;8.45;;;4.78;;
28862;SDS011;15994;51.796;13.006;2023-09-07T09:29:25;6.20;;;4.50;;
28862;SDS011;15994;51.796;13.006;2023-09-07T09:31:53;6.78;;;4.53;;
28862;SDS011;15994;51.796;13.006;2023-09-07T09:34:20;7.90;;;4.80;;
28862;SDS011;15994;51.796;13.006;2023-09-07T09:36:47;6.07;;;4.65;;
28862;SDS011;15994;51.796;13.006;2023-09-07T09:39:24;6.07;;;4.70;;
28862;SDS011;15994;51.796;13.006;2023-09-07T09:41:52;5.40;;;4.22;;
28862;SDS011;15994;51.796;13.006;2023-09-07T09:44:20;5.65;;;4.30;;
28862;SDS011;15994;51.796;13.006;2023-09-07T09:46:50;6.35;;;4.45;;
28862;SDS011;15994;51.796;13.006;2023-09-07T09:49:18;5.93;;;4.68;;
28862;SDS011;15994;51.796;13.006;2023-09-07T09:51:47;6.63;;;4.90;;
28862;SDS011;15994;51.796;13.006;2023-09-07T09:54:16;6.65;;;4.38;;
28862;SDS011;15994;51.796;13.006;2023-09-07T09:56:43;5.40;;;4.07;;
28862;SDS011;15994;51.796;13.006;2023-09-07T09:59:14;5.60;;;4.15;;
28862;SDS011;15994;51.796;13.006;2023-09-07T10:01:44;7.28;;;4.03;;
28862;SDS011;15994;51.796;13.006;2023-09-07T10:04:12;5.78;;;4.60;;
28862;SDS011;15994;51.796;13.006;2023-09-07T10:06:49;5.72;;;4.30;;
28862;SDS011;15994;51.796;13.006;2023-09-07T10:09:16;5.65;;;4.25;;
28862;SDS011;15994;51.796;13.006;2023-09-07T10:11:50;7.00;;;4.20;;
28862;SDS011;15994;51.796;13.006;2023-09-07T10:14:17;6.35;;;3.95;;
28862;SDS011;15994;51.796;13.006;2023-09-07T10:16:45;6.45;;;3.70;;
28862;SDS011;15994;51.796;13.006;2023-09-07T10:19:14;6.10;;;4.28;;
28862;SDS011;15994;51.796;13.006;2023-09-07T10:21:41;6.88;;;4.07;;
28862;SDS011;15994;51.796;13.006;2023-09-07T10:24:09;6.72;;;4.43;;
28862;SDS011;15994;51.796;13.006;2023-09-07T10:26:36;6.85;;;4.85;;
28862;SDS011;15994;51.796;13.006;2023-09-07T10:29:03;7.05;;;4.50;;
28862;SDS011;15994;51.796;13.006;2023-09-07T10:31:30;6.60;;;3.88;;
28862;SDS011;15994;51.796;13.006;2023-09-07T10:34:18;5.50;;;4.18;;
28862;SDS011;15994;51.796;13.006;2023-09-07T10:36:46;7.70;;;4.30;;
28862;SDS011;15994;51.796;13.006;2023-09-07T10:39:16;7.15;;;3.58;;
28862;SDS011;15994;51.796;13.006;2023-09-07T10:41:43;6.93;;;4.47;;
28862;SDS011;15994;51.796;13.006;2023-09-07T10:44:10;6.47;;;4.07;;
28862;SDS011;15994;51.796;13.006;2023-09-07T10:46:39;5.88;;;3.95;;
28862;SDS011;15994;51.796;13.006;2023-09-07T10:49:06;6.93;;;3.70;;
28862;SDS011;15994;51.796;13.006;2023-09-07T10:51:41;7.00;;;4.57;;
28862;SDS011;15994;51.796;13.006;2023-09-07T10:54:17;5.43;;;4.00;;
28862;SDS011;15994;51.796;13.006;2023-09-07T10:56:44;6.32;;;4.15;;
28862;SDS011;15994;51.796;13.006;2023-09-07T10:59:15;5.70;;;4.20;;
28862;SDS011;15994;51.796;13.006;2023-09-07T11:01:46;9.82;;;4.40;;
28862;SDS011;15994;51.796;13.006;2023-09-07T11:04:13;6.35;;;3.92;;
28862;SDS011;15994;51.796;13.006;2023-09-07T11:06:42;6.85;;;4.25;;
28862;SDS011;15994;51.796;13.006;2023-09-07T11:09:09;8.85;;;4.53;;
28862;SDS011;15994;51.796;13.006;2023-09-07T11:11:36;7.05;;;3.97;;
28862;SDS011;15994;51.796;13.006;2023-09-07T11:14:04;6.22;;;4.25;;
28862;SDS011;15994;51.796;13.006;2023-09-07T11:16:34;8.50;;;4.32;;
28862;SDS011;15994;51.796;13.006;2023-09-07T11:19:04;4.53;;;3.78;;
28862;SDS011;15994;51.796;13.006;2023-09-07T11:21:32;6.22;;;3.97;;
28862;SDS011;15994;51.796;13.006;2023-09-07T11:23:59;7.40;;;4.30;;
28862;SDS011;15994;51.796;13.006;2023-09-07T11:26:29;9.15;;;4.03;;
28862;SDS011;15994;51.796;13.006;2023-09-07T11:28:56;7.32;;;4.47;;
28862;SDS011;15994;51.796;13.006;2023-09-07T11:31:23;9.30;;;4.72;;
28862;SDS011;15994;51.796;13.006;2023-09-07T11:33:51;8.90;;;4.72;;
28862;SDS011;15994;51.796;13.006;2023-09-07T11:36:18;9.20;;;4.13;;
28862;SDS011;15994;51.796;13.006;2023-09-07T11:38:48;6.32;;;4.30;;
28862;SDS011;15994;51.796;13.006;2023-09-07T11:41:14;8.07;;;4.28;;
28862;SDS011;15994;51.796;13.006;2023-09-07T11:43:41;7.78;;;4.28;;
28862;SDS011;15994;51.796;13.006;2023-09-07T11:46:10;6.13;;;3.90;;
28862;SDS011;15994;51.796;13.006;2023-09-07T11:48:37;7.45;;;4.30;;
28862;SDS011;15994;51.796;13.006;2023-09-07T11:51:04;6.63;;;3.80;;
28862;SDS011;15994;51.796;13.006;2023-09-07T11:53:32;7.20;;;4.25;;
28862;SDS011;15994;51.796;13.006;2023-09-07T11:56:00;5.68;;;3.40;;
28862;SDS011;15994;51.796;13.006;2023-09-07T11:58:27;5.47;;;3.50;;
28862;SDS011;15994;51.796;13.006;2023-09-07T12:00:54;8.27;;;3.47;;
28862;SDS011;15994;51.796;13.006;2023-09-07T12:03:21;5.45;;;3.28;;
28862;SDS011;15994;51.796;13.006;2023-09-07T12:05:48;4.32;;;3.65;;
28862;SDS011;15994;51.796;13.006;2023-09-07T12:08:14;4.60;;;3.53;;
28862;SDS011;15994;51.796;13.006;2023-09-07T12:10:41;5.47;;;3.03;;
28862;SDS011;15994;51.796;13.006;2023-09-07T12:13:08;4.43;;;3.17;;
28862;SDS011;15994;51.796;13.006;2023-09-07T12:15:36;6.28;;;3.10;;
28862;SDS011;15994;51.796;13.006;2023-09-07T12:18:03;6.00;;;3.40;;
28862;SDS011;15994;51.796;13.006;2023-09-07T12:20:30;5.20;;;3.30;;
28862;SDS011;15994;51.796;13.006;2023-09-07T12:22:59;5.22;;;3.25;;
28862;SDS011;15994;51.796;13.006;2023-09-07T12:25:27;4.95;;;3.10;;
28862;SDS011;15994;51.796;13.006;2023-09-07T12:27:54;4.30;;;3.25;;
28862;SDS011;15994;51.796;13.006;2023-09-07T12:30:21;4.18;;;2.60;;
28862;SDS011;15994;51.796;13.006;2023-09-07T12:32:49;5.70;;;3.40;;
28862;SDS011;15994;51.796;13.006;2023-09-07T12:35:16;5.72;;;3.28;;
28862;SDS011;15994;51.796;13.006;2023-09-07T12:37:45;4.88;;;2.90;;
28862;SDS011;15994;51.796;13.006;2023-09-07T12:40:12;6.65;;;3.20;;
28862;SDS011;15994;51.796;13.006;2023-09-07T12:42:40;4.57;;;3.20;;
28862;SDS011;15994;51.796;13.006;2023-09-07T12:45:11;5.45;;;3.40;;
28862;SDS011;15994;51.796;13.006;2023-09-07T12:47:39;4.63;;;2.88;;
28862;SDS011;15994;51.796;13.006;2023-09-07T12:50:06;7.28;;;3.08;;
28862;SDS011;15994;51.796;13.006;2023-09-07T12:52:34;4.18;;;2.80;;
28862;SDS011;15994;51.796;13.006;2023-09-07T12:55:02;4.07;;;2.80;;
28862;SDS011;15994;51.796;13.006;2023-09-07T12:57:30;4.95;;;2.92;;
28862;SDS011;15994;51.796;13.006;2023-09-07T12:59:57;4.53;;;2.97;;
28862;SDS011;15994;51.796;13.006;2023-09-07T13:02:24;7.03;;;3.22;;
28862;SDS011;15994;51.796;13.006;2023-09-07T13:04:53;4.75;;;3.00;;
28862;SDS011;15994;51.796;13.006;2023-09-07T13:07:20;4.88;;;3.17;;
28862;SDS011;15994;51.796;13.006;2023-09-07T13:09:47;6.20;;;3.67;;
28862;SDS011;15994;51.796;13.006;2023-09-07T13:12:14;4.10;;;2.65;;
28862;SDS011;15994;51.796;13.006;2023-09-07T13:14:41;6.75;;;3.53;;
28862;SDS011;15994;51.796;13.006;2023-09-07T13:17:12;5.45;;;2.72;;
28862;SDS011;15994;51.796;13.006;2023-09-07T13:19:39;4.95;;;2.97;;
28862;SDS011;15994;51.796;13.006;2023-09-07T13:22:06;5.45;;;3.03;;
28862;SDS011;15994;51.796;13.006;2023-09-07T13:24:33;6.43;;;3.20;;
28862;SDS011;15994;51.796;13.006;2023-09-07T13:27:01;7.10;;;3.58;;
28862;SDS011;15994;51.796;13.006;2023-09-07T13:29:28;3.97;;;2.83;;
28862;SDS011;15994;51.796;13.006;2023-09-07T13:31:56;6.20;;;3.05;;
28862;SDS011;15994;51.796;13.006;2023-09-07T13:34:24;4.25;;;3.17;;
28862;SDS011;15994;51.796;13.006;2023-09-07T13:36:51;4.47;;;3.03;;
28862;SDS011;15994;51.796;13.006;2023-09-07T13:39:19;4.57;;;3.15;;
28862;SDS011;15994;51.796;13.006;2023-09-07T13:41:46;3.80;;;2.70;;
28862;SDS011;15994;51.796;13.006;2023-09-07T13:44:13;3.88;;;2.80;;
28862;SDS011;15994;51.796;13.006;2023-09-07T13:46:41;5.45;;;3.28;;
28862;SDS011;15994;51.796;13.006;2023-09-07T13:49:08;4.65;;;2.78;;
28862;SDS011;15994;51.796;13.006;2023-09-07T13:51:35;4.55;;;2.83;;
28862;SDS011;15994;51.796;13.006;2023-09-07T13:54:04;5.20;;;2.92;;
28862;SDS011;15994;51.796;13.006;2023-09-07T13:56:32;5.53;;;3.08;;
28862;SDS011;15994;51.796;13.006;2023-09-07T13:58:59;6.88;;;3.00;;
28862;SDS011;15994;51.796;13.006;2023-09-07T14:01:26;10.05;;;3.15;;
28862;SDS011;15994;51.796;13.006;2023-09-07T14:03:53;5.70;;;3.50;;
28862;SDS011;15994;51.796;13.006;2023-09-07T14:06:21;5.40;;;3.00;;
28862;SDS011;15994;51.796;13.006;2023-09-07T14:08:49;5.53;;;3.10;;
28862;SDS011;15994;51.796;13.006;2023-09-07T14:11:16;4.25;;;3.22;;
28862;SDS011;15994;51.796;13.006;2023-09-07T14:13:43;5.05;;;3.20;;
28862;SDS011;15994;51.796;13.006;2023-09-07T14:16:11;6.65;;;2.70;;
28862;SDS011;15994;51.796;13.006;2023-09-07T14:18:38;5.18;;;2.90;;
28862;SDS011;15994;51.796;13.006;2023-09-07T14:21:06;4.95;;;2.92;;
28862;SDS011;15994;51.796;13.006;2023-09-07T14:23:33;5.15;;;2.95;;
28862;SDS011;15994;51.796;13.006;2023-09-07T14:26:00;4.30;;;3.10;;
28862;SDS011;15994;51.796;13.006;2023-09-07T14:28:27;3.50;;;2.47;;
28862;SDS011;15994;51.796;13.006;2023-09-07T14:30:54;4.05;;;2.60;;
28862;SDS011;15994;51.796;13.006;2023-09-07T14:33:23;4.38;;;2.85;;
28862;SDS011;15994;51.796;13.006;2023-09-07T14:35:51;4.07;;;2.83;;
28862;SDS011;15994;51.796;13.006;2023-09-07T14:38:20;5.35;;;2.20;;
28862;SDS011;15994;51.796;13.006;2023-09-07T14:40:48;6.55;;;2.63;;
28862;SDS011;15994;51.796;13.006;2023-09-07T14:43:15;4.57;;;2.63;;
28862;SDS011;15994;51.796;13.006;2023-09-07T14:45:43;5.88;;;2.65;;
28862;SDS011;15994;51.796;13.006;2023-09-07T14:48:10;4.30;;;3.00;;
28862;SDS011;15994;51.796;13.006;2023-09-07T14:50:37;3.53;;;2.53;;
28862;SDS011;15994;51.796;13.006;2023-09-07T14:53:04;5.28;;;2.85;;
28862;SDS011;15994;51.796;13.006;2023-09-07T14:55:32;3.72;;;2.40;;
28862;SDS011;15994;51.796;13.006;2023-09-07T14:57:59;3.92;;;2.60;;
28862;SDS011;15994;51.796;13.006;2023-09-07T15:00:26;4.03;;;2.70;;
28862;SDS011;15994;51.796;13.006;2023-09-07T15:02:57;5.47;;;2.88;;
28862;SDS011;15994;51.796;13.006;2023-09-07T15:05:24;4.47;;;2.72;;